sensor_id;sensor_type;location;lat;lon;timestamp;P1;durP1;ratioP1;P2;durP2;ratioP2
34200;SDS011;20469;55.638;37.670;2023-07-13T00:01:48;1.98;;;1.70;;
34200;SDS011;20469;55.638;37.670;2023-07-13T00:04:20;3.25;;;1.90;;
34200;SDS011;20469;55.638;37.670;2023-07-13T00:06:49;2.63;;;1.80;;
34200;SDS011;20469;55.638;37.670;2023-07-13T00:09:17;2.20;;;1.85;;
34200;SDS011;20469;55.638;37.670;2023-07-13T00:11:45;3.40;;;1.77;;
34200;SDS011;20469;55.638;37.670;2023-07-13T00:14:16;2.53;;;2.10;;
34200;SDS011;20469;55.638;37.670;2023-07-13T00:16:43;2.92;;;2.03;;
34200;SDS011;20469;55.638;37.670;2023-07-13T00:19:11;3.67;;;1.60;;
34200;SDS011;20469;55.638;37.670;2023-07-13T00:21:40;2.78;;;1.88;;
34200;SDS011;20469;55.638;37.670;2023-07-13T00:24:08;2.55;;;1.92;;
34200;SDS011;20469;55.638;37.670;2023-07-13T00:26:42;3.25;;;1.95;;
34200;SDS011;20469;55.638;37.670;2023-07-13T00:29:12;4.55;;;1.85;;
34200;SDS011;20469;55.638;37.670;2023-07-13T00:31:40;2.05;;;1.80;;
34200;SDS011;20469;55.638;37.670;2023-07-13T00:34:07;2.80;;;1.70;;
34200;SDS011;20469;55.638;37.670;2023-07-13T00:36:35;4.50;;;1.85;;
34200;SDS011;20469;55.638;37.670;2023-07-13T00:39:02;3.35;;;1.80;;
34200;SDS011;20469;55.638;37.670;2023-07-13T00:41:31;3.08;;;1.90;;
34200;SDS011;20469;55.638;37.670;2023-07-13T00:43:58;3.95;;;1.80;;
34200;SDS011;20469;55.638;37.670;2023-07-13T00:46:27;2.60;;;1.80;;
34200;SDS011;20469;55.638;37.670;2023-07-13T00:48:57;4.82;;;1.88;;
34200;SDS011;20469;55.638;37.670;2023-07-13T00:51:30;3.88;;;1.80;;
34200;SDS011;20469;55.638;37.670;2023-07-13T00:54:05;2.30;;;1.75;;
34200;SDS011;20469;55.638;37.670;2023-07-13T00:56:35;2.42;;;1.90;;
34200;SDS011;20469;55.638;37.670;2023-07-13T00:59:04;2.97;;;1.90;;
34200;SDS011;20469;55.638;37.670;2023-07-13T01:01:33;4.47;;;2.10;;
34200;SDS011;20469;55.638;37.670;2023-07-13T01:04:00;4.05;;;2.25;;
34200;SDS011;20469;55.638;37.670;2023-07-13T01:06:28;2.47;;;1.80;;
34200;SDS011;20469;55.638;37.670;2023-07-13T01:08:57;3.63;;;1.98;;
34200;SDS011;20469;55.638;37.670;2023-07-13T01:11:26;2.38;;;1.70;;
34200;SDS011;20469;55.638;37.670;2023-07-13T01:13:53;2.63;;;1.90;;
34200;SDS011;20469;55.638;37.670;2023-07-13T01:16:25;3.30;;;2.08;;
34200;SDS011;20469;55.638;37.670;2023-07-13T01:18:55;3.95;;;2.13;;
34200;SDS011;20469;55.638;37.670;2023-07-13T01:21:27;2.60;;;1.92;;
34200;SDS011;20469;55.638;37.670;2023-07-13T01:23:56;2.80;;;2.00;;
34200;SDS011;20469;55.638;37.670;2023-07-13T01:26:25;3.55;;;2.05;;
34200;SDS011;20469;55.638;37.670;2023-07-13T01:28:53;2.72;;;2.03;;
34200;SDS011;20469;55.638;37.670;2023-07-13T01:31:23;2.83;;;1.80;;
34200;SDS011;20469;55.638;37.670;2023-07-13T01:33:51;3.63;;;1.88;;
34200;SDS011;20469;55.638;37.670;2023-07-13T01:36:18;2.60;;;1.90;;
34200;SDS011;20469;55.638;37.670;2023-07-13T01:38:47;4.28;;;2.22;;
34200;SDS011;20469;55.638;37.670;2023-07-13T01:41:15;3.50;;;1.90;;
34200;SDS011;20469;55.638;37.670;2023-07-13T01:43:42;2.13;;;1.92;;
34200;SDS011;20469;55.638;37.670;2023-07-13T01:46:09;2.88;;;1.83;;
34200;SDS011;20469;55.638;37.670;2023-07-13T01:48:50;3.88;;;2.10;;
34200;SDS011;20469;55.638;37.670;2023-07-13T01:51:19;5.05;;;2.00;;
34200;SDS011;20469;55.638;37.670;2023-07-13T01:53:47;3.80;;;1.80;;
34200;SDS011;20469;55.638;37.670;2023-07-13T01:56:14;3.03;;;2.20;;
34200;SDS011;20469;55.638;37.670;2023-07-13T01:58:41;2.63;;;1.92;;
34200;SDS011;20469;55.638;37.670;2023-07-13T02:01:09;3.30;;;1.90;;
34200;SDS011;20469;55.638;37.670;2023-07-13T02:03:36;4.50;;;2.10;;
34200;SDS011;20469;55.638;37.670;2023-07-13T02:06:03;3.65;;;2.03;;
34200;SDS011;20469;55.638;37.670;2023-07-13T02:08:31;4.53;;;2.17;;
34200;SDS011;20469;55.638;37.670;2023-07-13T02:11:00;4.35;;;2.17;;
34200;SDS011;20469;55.638;37.670;2023-07-13T02:13:29;4.00;;;2.28;;
34200;SDS011;20469;55.638;37.670;2023-07-13T02:15:56;4.22;;;2.10;;
34200;SDS011;20469;55.638;37.670;2023-07-13T02:18:24;3.90;;;2.22;;
34200;SDS011;20469;55.638;37.670;2023-07-13T02:20:51;3.72;;;2.00;;
34200;SDS011;20469;55.638;37.670;2023-07-13T02:23:18;3.50;;;2.17;;
34200;SDS011;20469;55.638;37.670;2023-07-13T02:25:46;4.22;;;2.15;;
34200;SDS011;20469;55.638;37.670;2023-07-13T02:28:13;6.03;;;2.15;;
34200;SDS011;20469;55.638;37.670;2023-07-13T02:30:40;3.88;;;2.15;;
34200;SDS011;20469;55.638;37.670;2023-07-13T02:33:08;4.57;;;2.03;;
34200;SDS011;20469;55.638;37.670;2023-07-13T02:35:35;3.92;;;2.20;;
34200;SDS011;20469;55.638;37.670;2023-07-13T02:38:02;5.60;;;2.45;;
34200;SDS011;20469;55.638;37.670;2023-07-13T02:40:29;5.45;;;2.30;;
34200;SDS011;20469;55.638;37.670;2023-07-13T02:42:59;3.35;;;2.10;;
34200;SDS011;20469;55.638;37.670;2023-07-13T02:45:27;4.20;;;2.22;;
34200;SDS011;20469;55.638;37.670;2023-07-13T02:47:54;3.15;;;2.00;;
34200;SDS011;20469;55.638;37.670;2023-07-13T02:50:21;4.00;;;2.15;;
34200;SDS011;20469;55.638;37.670;2023-07-13T02:52:48;2.85;;;2.10;;
34200;SDS011;20469;55.638;37.670;2023-07-13T02:55:16;5.88;;;2.40;;
34200;SDS011;20469;55.638;37.670;2023-07-13T02:57:43;3.67;;;2.70;;
34200;SDS011;20469;55.638;37.670;2023-07-13T03:00:10;3.63;;;2.30;;
34200;SDS011;20469;55.638;37.670;2023-07-13T03:02:38;3.78;;;2.55;;
34200;SDS011;20469;55.638;37.670;2023-07-13T03:05:05;3.53;;;2.17;;
34200;SDS011;20469;55.638;37.670;2023-07-13T03:07:33;4.75;;;2.40;;
34200;SDS011;20469;55.638;37.670;2023-07-13T03:10:00;2.47;;;2.05;;
34200;SDS011;20469;55.638;37.670;2023-07-13T03:12:29;3.88;;;2.50;;
34200;SDS011;20469;55.638;37.670;2023-07-13T03:14:57;3.53;;;1.90;;
34200;SDS011;20469;55.638;37.670;2023-07-13T03:17:24;3.10;;;2.40;;
34200;SDS011;20469;55.638;37.670;2023-07-13T03:19:51;2.75;;;2.30;;
34200;SDS011;20469;55.638;37.670;2023-07-13T03:22:19;4.13;;;2.50;;
34200;SDS011;20469;55.638;37.670;2023-07-13T03:24:46;5.35;;;2.10;;
34200;SDS011;20469;55.638;37.670;2023-07-13T03:27:15;2.83;;;2.10;;
34200;SDS011;20469;55.638;37.670;2023-07-13T03:29:44;4.28;;;2.42;;
34200;SDS011;20469;55.638;37.670;2023-07-13T03:32:11;2.47;;;2.28;;
34200;SDS011;20469;55.638;37.670;2023-07-13T03:34:38;3.05;;;2.10;;
34200;SDS011;20469;55.638;37.670;2023-07-13T03:37:05;2.97;;;2.10;;
34200;SDS011;20469;55.638;37.670;2023-07-13T03:39:32;5.20;;;2.38;;
34200;SDS011;20469;55.638;37.670;2023-07-13T03:42:00;3.88;;;2.25;;
34200;SDS011;20469;55.638;37.670;2023-07-13T03:44:27;5.78;;;2.22;;
34200;SDS011;20469;55.638;37.670;2023-07-13T03:46:54;6.13;;;2.15;;
34200;SDS011;20469;55.638;37.670;2023-07-13T03:49:22;4.32;;;2.28;;
34200;SDS011;20469;55.638;37.670;2023-07-13T03:51:49;3.22;;;2.50;;
34200;SDS011;20469;55.638;37.670;2023-07-13T03:54:19;3.90;;;2.67;;
34200;SDS011;20469;55.638;37.670;2023-07-13T03:56:47;3.47;;;2.10;;
34200;SDS011;20469;55.638;37.670;2023-07-13T03:59:14;4.07;;;2.30;;
34200;SDS011;20469;55.638;37.670;2023-07-13T04:01:43;4.28;;;2.20;;
34200;SDS011;20469;55.638;37.670;2023-07-13T04:04:10;3.78;;;2.00;;
34200;SDS011;20469;55.638;37.670;2023-07-13T04:06:38;3.78;;;2.33;;
34200;SDS011;20469;55.638;37.670;2023-07-13T04:09:05;3.53;;;2.28;;
34200;SDS011;20469;55.638;37.670;2023-07-13T04:11:33;2.30;;;2.10;;
34200;SDS011;20469;55.638;37.670;2023-07-13T04:14:03;4.68;;;2.15;;
34200;SDS011;20469;55.638;37.670;2023-07-13T04:16:30;3.33;;;2.40;;
34200;SDS011;20469;55.638;37.670;2023-07-13T04:18:58;3.38;;;2.60;;
34200;SDS011;20469;55.638;37.670;2023-07-13T04:21:28;4.72;;;2.40;;
34200;SDS011;20469;55.638;37.670;2023-07-13T04:23:57;4.32;;;2.17;;
34200;SDS011;20469;55.638;37.670;2023-07-13T04:26:24;4.60;;;2.05;;
34200;SDS011;20469;55.638;37.670;2023-07-13T04:28:53;4.78;;;2.42;;
34200;SDS011;20469;55.638;37.670;2023-07-13T04:31:20;4.97;;;2.20;;
34200;SDS011;20469;55.638;37.670;2023-07-13T04:33:48;6.07;;;2.53;;
34200;SDS011;20469;55.638;37.670;2023-07-13T04:36:17;4.68;;;2.38;;
34200;SDS011;20469;55.638;37.670;2023-07-13T04:38:44;7.20;;;2.47;;
34200;SDS011;20469;55.638;37.670;2023-07-13T04:41:12;3.28;;;2.45;;
34200;SDS011;20469;55.638;37.670;2023-07-13T04:43:41;4.80;;;3.00;;
34200;SDS011;20469;55.638;37.670;2023-07-13T04:46:10;3.72;;;2.50;;
34200;SDS011;20469;55.638;37.670;2023-07-13T04:48:39;4.47;;;2.45;;
34200;SDS011;20469;55.638;37.670;2023-07-13T04:51:07;4.30;;;2.22;;
34200;SDS011;20469;55.638;37.670;2023-07-13T04:53:34;3.83;;;2.45;;
34200;SDS011;20469;55.638;37.670;2023-07-13T04:56:02;5.05;;;2.85;;
34200;SDS011;20469;55.638;37.670;2023-07-13T04:58:30;4.13;;;2.47;;
34200;SDS011;20469;55.638;37.670;2023-07-13T05:01:04;5.05;;;2.65;;
34200;SDS011;20469;55.638;37.670;2023-07-13T05:03:32;5.43;;;3.30;;
34200;SDS011;20469;55.638;37.670;2023-07-13T05:06:02;7.28;;;2.75;;
34200;SDS011;20469;55.638;37.670;2023-07-13T05:08:32;5.55;;;2.30;;
34200;SDS011;20469;55.638;37.670;2023-07-13T05:11:00;4.53;;;2.70;;
34200;SDS011;20469;55.638;37.670;2023-07-13T05:13:29;4.65;;;2.63;;
34200;SDS011;20469;55.638;37.670;2023-07-13T05:16:00;9.63;;;2.88;;
34200;SDS011;20469;55.638;37.670;2023-07-13T05:18:29;8.52;;;2.83;;
34200;SDS011;20469;55.638;37.670;2023-07-13T05:20:58;6.95;;;3.03;;
34200;SDS011;20469;55.638;37.670;2023-07-13T05:23:27;6.85;;;3.03;;
34200;SDS011;20469;55.638;37.670;2023-07-13T05:25:55;7.03;;;3.13;;
34200;SDS011;20469;55.638;37.670;2023-07-13T05:28:23;4.40;;;2.78;;
34200;SDS011;20469;55.638;37.670;2023-07-13T05:30:51;5.25;;;2.67;;
34200;SDS011;20469;55.638;37.670;2023-07-13T05:33:18;5.38;;;2.40;;
34200;SDS011;20469;55.638;37.670;2023-07-13T05:35:46;4.75;;;2.53;;
34200;SDS011;20469;55.638;37.670;2023-07-13T05:38:14;6.05;;;2.85;;
34200;SDS011;20469;55.638;37.670;2023-07-13T05:40:44;7.32;;;2.45;;
34200;SDS011;20469;55.638;37.670;2023-07-13T05:43:12;5.05;;;2.42;;
34200;SDS011;20469;55.638;37.670;2023-07-13T05:45:41;6.07;;;2.58;;
34200;SDS011;20469;55.638;37.670;2023-07-13T05:48:08;5.15;;;2.35;;
34200;SDS011;20469;55.638;37.670;2023-07-13T05:50:35;5.13;;;2.55;;
34200;SDS011;20469;55.638;37.670;2023-07-13T05:53:03;5.60;;;2.38;;
34200;SDS011;20469;55.638;37.670;2023-07-13T05:55:31;4.85;;;2.53;;
34200;SDS011;20469;55.638;37.670;2023-07-13T05:57:59;3.95;;;2.17;;
34200;SDS011;20469;55.638;37.670;2023-07-13T06:00:27;5.22;;;2.42;;
34200;SDS011;20469;55.638;37.670;2023-07-13T06:02:55;7.68;;;2.28;;
34200;SDS011;20469;55.638;37.670;2023-07-13T06:05:25;6.45;;;2.30;;
34200;SDS011;20469;55.638;37.670;2023-07-13T06:07:53;3.03;;;2.33;;
34200;SDS011;20469;55.638;37.670;2023-07-13T06:10:21;3.33;;;2.22;;
34200;SDS011;20469;55.638;37.670;2023-07-13T06:12:48;4.07;;;2.00;;
34200;SDS011;20469;55.638;37.670;2023-07-13T06:15:15;3.83;;;2.20;;
34200;SDS011;20469;55.638;37.670;2023-07-13T06:17:44;7.57;;;2.40;;
34200;SDS011;20469;55.638;37.670;2023-07-13T06:20:11;3.20;;;2.30;;
34200;SDS011;20469;55.638;37.670;2023-07-13T06:22:39;4.78;;;2.50;;
34200;SDS011;20469;55.638;37.670;2023-07-13T06:25:06;4.97;;;2.30;;
34200;SDS011;20469;55.638;37.670;2023-07-13T06:27:34;6.35;;;2.33;;
34200;SDS011;20469;55.638;37.670;2023-07-13T06:30:01;5.97;;;2.35;;
34200;SDS011;20469;55.638;37.670;2023-07-13T06:32:30;4.72;;;2.30;;
34200;SDS011;20469;55.638;37.670;2023-07-13T06:34:58;5.35;;;2.60;;
34200;SDS011;20469;55.638;37.670;2023-07-13T06:37:25;4.57;;;2.20;;
34200;SDS011;20469;55.638;37.670;2023-07-13T06:39:52;4.13;;;2.20;;
34200;SDS011;20469;55.638;37.670;2023-07-13T06:42:19;4.93;;;2.30;;
34200;SDS011;20469;55.638;37.670;2023-07-13T06:44:46;6.55;;;2.20;;
34200;SDS011;20469;55.638;37.670;2023-07-13T06:47:13;4.30;;;2.30;;
34200;SDS011;20469;55.638;37.670;2023-07-13T06:49:41;4.03;;;2.20;;
34200;SDS011;20469;55.638;37.670;2023-07-13T06:52:08;6.63;;;2.55;;
34200;SDS011;20469;55.638;37.670;2023-07-13T06:54:36;6.10;;;2.08;;
34200;SDS011;20469;55.638;37.670;2023-07-13T06:57:03;6.82;;;2.28;;
34200;SDS011;20469;55.638;37.670;2023-07-13T06:59:31;6.32;;;1.95;;
34200;SDS011;20469;55.638;37.670;2023-07-13T07:01:58;4.50;;;1.80;;
34200;SDS011;20469;55.638;37.670;2023-07-13T07:04:25;7.18;;;2.50;;
34200;SDS011;20469;55.638;37.670;2023-07-13T07:06:52;5.30;;;2.38;;
34200;SDS011;20469;55.638;37.670;2023-07-13T07:09:24;5.40;;;2.70;;
34200;SDS011;20469;55.638;37.670;2023-07-13T07:11:52;7.15;;;2.40;;
34200;SDS011;20469;55.638;37.670;2023-07-13T07:14:29;4.82;;;2.08;;
34200;SDS011;20469;55.638;37.670;2023-07-13T07:16:57;6.18;;;2.40;;
34200;SDS011;20469;55.638;37.670;2023-07-13T07:19:27;8.73;;;2.17;;
34200;SDS011;20469;55.638;37.670;2023-07-13T07:21:56;5.70;;;2.38;;
34200;SDS011;20469;55.638;37.670;2023-07-13T07:24:23;5.43;;;2.42;;
34200;SDS011;20469;55.638;37.670;2023-07-13T07:26:51;5.43;;;2.63;;
34200;SDS011;20469;55.638;37.670;2023-07-13T07:29:21;3.83;;;2.00;;
34200;SDS011;20469;55.638;37.670;2023-07-13T07:31:52;7.80;;;2.53;;
34200;SDS011;20469;55.638;37.670;2023-07-13T07:34:23;9.40;;;2.45;;
34200;SDS011;20469;55.638;37.670;2023-07-13T07:36:50;4.70;;;2.35;;
34200;SDS011;20469;55.638;37.670;2023-07-13T07:39:20;6.55;;;2.22;;
34200;SDS011;20469;55.638;37.670;2023-07-13T07:41:48;7.15;;;2.42;;
34200;SDS011;20469;55.638;37.670;2023-07-13T07:44:19;8.90;;;2.60;;
34200;SDS011;20469;55.638;37.670;2023-07-13T07:46:47;5.97;;;2.50;;
34200;SDS011;20469;55.638;37.670;2023-07-13T07:49:15;6.40;;;2.50;;
34200;SDS011;20469;55.638;37.670;2023-07-13T07:51:42;8.50;;;2.83;;
34200;SDS011;20469;55.638;37.670;2023-07-13T07:54:09;7.03;;;2.50;;
34200;SDS011;20469;55.638;37.670;2023-07-13T07:56:40;6.03;;;3.00;;
34200;SDS011;20469;55.638;37.670;2023-07-13T07:59:10;9.57;;;2.85;;
34200;SDS011;20469;55.638;37.670;2023-07-13T08:01:40;5.85;;;2.58;;
34200;SDS011;20469;55.638;37.670;2023-07-13T08:04:28;7.20;;;2.70;;
34200;SDS011;20469;55.638;37.670;2023-07-13T08:06:58;6.65;;;2.70;;
34200;SDS011;20469;55.638;37.670;2023-07-13T08:09:25;10.30;;;3.00;;
34200;SDS011;20469;55.638;37.670;2023-07-13T08:11:53;9.25;;;3.50;;
34200;SDS011;20469;55.638;37.670;2023-07-13T08:14:24;9.40;;;3.15;;
34200;SDS011;20469;55.638;37.670;2023-07-13T08:17:08;5.30;;;2.20;;
34200;SDS011;20469;55.638;37.670;2023-07-13T08:19:35;4.53;;;2.50;;
34200;SDS011;20469;55.638;37.670;2023-07-13T08:22:02;6.35;;;2.80;;
34200;SDS011;20469;55.638;37.670;2023-07-13T08:24:30;4.95;;;2.42;;
34200;SDS011;20469;55.638;37.670;2023-07-13T08:26:57;4.72;;;2.50;;
34200;SDS011;20469;55.638;37.670;2023-07-13T08:29:24;5.07;;;2.67;;
34200;SDS011;20469;55.638;37.670;2023-07-13T08:31:51;5.28;;;2.45;;
34200;SDS011;20469;55.638;37.670;2023-07-13T08:34:19;4.28;;;2.25;;
34200;SDS011;20469;55.638;37.670;2023-07-13T08:36:47;6.40;;;2.42;;
34200;SDS011;20469;55.638;37.670;2023-07-13T08:39:14;4.80;;;2.58;;
34200;SDS011;20469;55.638;37.670;2023-07-13T08:41:41;6.15;;;2.88;;
34200;SDS011;20469;55.638;37.670;2023-07-13T08:44:15;7.40;;;2.58;;
34200;SDS011;20469;55.638;37.670;2023-07-13T08:47:02;3.53;;;2.13;;
34200;SDS011;20469;55.638;37.670;2023-07-13T08:49:30;3.90;;;2.05;;
34200;SDS011;20469;55.638;37.670;2023-07-13T08:52:03;8.63;;;2.80;;
34200;SDS011;20469;55.638;37.670;2023-07-13T08:54:39;4.63;;;2.40;;
34200;SDS011;20469;55.638;37.670;2023-07-13T08:57:17;3.78;;;2.10;;
34200;SDS011;20469;55.638;37.670;2023-07-13T08:59:46;4.28;;;2.40;;
34200;SDS011;20469;55.638;37.670;2023-07-13T09:04:53;4.72;;;2.80;;
34200;SDS011;20469;55.638;37.670;2023-07-13T09:15:23;6.60;;;2.97;;
34200;SDS011;20469;55.638;37.670;2023-07-13T09:17:55;9.40;;;3.22;;
34200;SDS011;20469;55.638;37.670;2023-07-13T09:20:30;7.88;;;3.20;;
34200;SDS011;20469;55.638;37.670;2023-07-13T09:23:01;6.03;;;3.08;;
34200;SDS011;20469;55.638;37.670;2023-07-13T09:25:34;5.88;;;3.20;;
34200;SDS011;20469;55.638;37.670;2023-07-13T09:28:37;6.28;;;3.15;;
34200;SDS011;20469;55.638;37.670;2023-07-13T09:34:00;5.55;;;3.00;;
34200;SDS011;20469;55.638;37.670;2023-07-13T09:36:31;6.30;;;3.28;;
34200;SDS011;20469;55.638;37.670;2023-07-13T09:44:14;7.20;;;3.95;;
34200;SDS011;20469;55.638;37.670;2023-07-13T09:46:55;5.85;;;3.40;;
34200;SDS011;20469;55.638;37.670;2023-07-13T09:49:27;5.65;;;3.60;;
34200;SDS011;20469;55.638;37.670;2023-07-13T09:51:57;4.93;;;3.03;;
34200;SDS011;20469;55.638;37.670;2023-07-13T09:54:27;8.48;;;3.30;;
34200;SDS011;20469;55.638;37.670;2023-07-13T09:56:58;6.07;;;3.40;;
34200;SDS011;20469;55.638;37.670;2023-07-13T09:59:30;4.93;;;3.28;;
34200;SDS011;20469;55.638;37.670;2023-07-13T10:02:01;6.32;;;3.50;;
34200;SDS011;20469;55.638;37.670;2023-07-13T10:04:33;4.80;;;3.08;;
34200;SDS011;20469;55.638;37.670;2023-07-13T10:07:04;5.10;;;2.90;;
34200;SDS011;20469;55.638;37.670;2023-07-13T10:09:54;9.23;;;3.80;;
34200;SDS011;20469;55.638;37.670;2023-07-13T10:12:23;3.95;;;3.00;;
34200;SDS011;20469;55.638;37.670;2023-07-13T10:14:54;6.38;;;3.80;;
34200;SDS011;20469;55.638;37.670;2023-07-13T10:17:45;8.13;;;4.22;;
34200;SDS011;20469;55.638;37.670;2023-07-13T10:20:12;13.02;;;6.82;;
34200;SDS011;20469;55.638;37.670;2023-07-13T10:22:52;31.30;;;15.48;;
34200;SDS011;20469;55.638;37.670;2023-07-13T10:25:38;11.38;;;6.25;;
34200;SDS011;20469;55.638;37.670;2023-07-13T10:30:56;8.27;;;5.47;;
34200;SDS011;20469;55.638;37.670;2023-07-13T10:33:27;9.57;;;5.32;;
34200;SDS011;20469;55.638;37.670;2023-07-13T10:35:57;14.55;;;8.40;;
34200;SDS011;20469;55.638;37.670;2023-07-13T10:38:44;11.27;;;6.25;;
34200;SDS011;20469;55.638;37.670;2023-07-13T10:41:15;5.32;;;3.75;;
34200;SDS011;20469;55.638;37.670;2023-07-13T10:43:47;24.73;;;13.27;;
34200;SDS011;20469;55.638;37.670;2023-07-13T10:46:20;21.63;;;10.02;;
34200;SDS011;20469;55.638;37.670;2023-07-13T10:48:51;7.63;;;4.43;;
34200;SDS011;20469;55.638;37.670;2023-07-13T10:51:21;6.63;;;4.20;;
34200;SDS011;20469;55.638;37.670;2023-07-13T10:56:48;8.25;;;5.00;;
34200;SDS011;20469;55.638;37.670;2023-07-13T10:59:18;6.65;;;4.05;;
34200;SDS011;20469;55.638;37.670;2023-07-13T11:01:57;9.75;;;4.35;;
34200;SDS011;20469;55.638;37.670;2023-07-13T11:04:29;7.53;;;4.38;;
34200;SDS011;20469;55.638;37.670;2023-07-13T11:09:59;7.07;;;3.42;;
34200;SDS011;20469;55.638;37.670;2023-07-13T11:15:14;5.55;;;3.45;;
34200;SDS011;20469;55.638;37.670;2023-07-13T11:17:55;5.88;;;4.20;;
34200;SDS011;20469;55.638;37.670;2023-07-13T11:20:31;6.03;;;3.97;;
34200;SDS011;20469;55.638;37.670;2023-07-13T11:25:35;6.57;;;3.83;;
34200;SDS011;20469;55.638;37.670;2023-07-13T11:33:14;7.05;;;3.90;;
34200;SDS011;20469;55.638;37.670;2023-07-13T11:35:52;8.20;;;3.97;;
34200;SDS011;20469;55.638;37.670;2023-07-13T11:38:24;6.72;;;3.72;;
34200;SDS011;20469;55.638;37.670;2023-07-13T11:40:54;8.93;;;4.00;;
34200;SDS011;20469;55.638;37.670;2023-07-13T11:43:24;5.85;;;3.50;;
34200;SDS011;20469;55.638;37.670;2023-07-13T11:45:52;5.30;;;3.47;;
34200;SDS011;20469;55.638;37.670;2023-07-13T11:48:20;6.55;;;3.80;;
34200;SDS011;20469;55.638;37.670;2023-07-13T11:51:02;9.10;;;3.50;;
34200;SDS011;20469;55.638;37.670;2023-07-13T11:53:44;7.15;;;3.60;;
34200;SDS011;20469;55.638;37.670;2023-07-13T11:56:12;3.83;;;3.10;;
34200;SDS011;20469;55.638;37.670;2023-07-13T11:58:41;8.35;;;3.80;;
34200;SDS011;20469;55.638;37.670;2023-07-13T12:01:15;6.32;;;3.78;;
34200;SDS011;20469;55.638;37.670;2023-07-13T12:04:03;5.72;;;3.58;;
34200;SDS011;20469;55.638;37.670;2023-07-13T12:06:36;6.35;;;3.30;;
34200;SDS011;20469;55.638;37.670;2023-07-13T12:09:13;7.88;;;3.33;;
34200;SDS011;20469;55.638;37.670;2023-07-13T12:11:43;6.10;;;3.47;;
34200;SDS011;20469;55.638;37.670;2023-07-13T12:14:14;6.80;;;3.60;;
34200;SDS011;20469;55.638;37.670;2023-07-13T12:16:43;8.35;;;3.78;;
34200;SDS011;20469;55.638;37.670;2023-07-13T12:19:27;5.70;;;3.53;;
34200;SDS011;20469;55.638;37.670;2023-07-13T12:21:56;6.82;;;3.80;;
34200;SDS011;20469;55.638;37.670;2023-07-13T12:24:25;6.72;;;3.70;;
34200;SDS011;20469;55.638;37.670;2023-07-13T12:27:03;7.93;;;3.45;;
34200;SDS011;20469;55.638;37.670;2023-07-13T12:29:31;6.43;;;3.40;;
34200;SDS011;20469;55.638;37.670;2023-07-13T12:31:59;7.95;;;3.40;;
34200;SDS011;20469;55.638;37.670;2023-07-13T12:34:27;4.90;;;3.40;;
34200;SDS011;20469;55.638;37.670;2023-07-13T12:37:01;6.30;;;3.50;;
34200;SDS011;20469;55.638;37.670;2023-07-13T12:42:18;6.13;;;3.88;;
34200;SDS011;20469;55.638;37.670;2023-07-13T12:44:57;6.55;;;3.40;;
34200;SDS011;20469;55.638;37.670;2023-07-13T12:47:47;7.65;;;3.95;;
34200;SDS011;20469;55.638;37.670;2023-07-13T12:50:17;6.70;;;3.70;;
34200;SDS011;20469;55.638;37.670;2023-07-13T12:52:51;4.47;;;3.10;;
34200;SDS011;20469;55.638;37.670;2023-07-13T12:55:20;7.32;;;3.05;;
34200;SDS011;20469;55.638;37.670;2023-07-13T12:57:51;5.45;;;3.08;;
34200;SDS011;20469;55.638;37.670;2023-07-13T13:00:23;6.97;;;3.10;;
34200;SDS011;20469;55.638;37.670;2023-07-13T13:02:54;7.30;;;3.65;;
34200;SDS011;20469;55.638;37.670;2023-07-13T13:05:44;8.32;;;3.42;;
34200;SDS011;20469;55.638;37.670;2023-07-13T13:08:12;9.02;;;3.10;;
34200;SDS011;20469;55.638;37.670;2023-07-13T13:10:40;6.60;;;3.42;;
34200;SDS011;20469;55.638;37.670;2023-07-13T13:13:08;7.43;;;3.70;;
34200;SDS011;20469;55.638;37.670;2023-07-13T13:15:35;7.00;;;3.80;;
34200;SDS011;20469;55.638;37.670;2023-07-13T13:18:08;8.27;;;3.70;;
34200;SDS011;20469;55.638;37.670;2023-07-13T13:20:46;6.55;;;3.65;;
34200;SDS011;20469;55.638;37.670;2023-07-13T13:23:18;7.90;;;4.13;;
34200;SDS011;20469;55.638;37.670;2023-07-13T13:25:48;7.95;;;3.92;;
34200;SDS011;20469;55.638;37.670;2023-07-13T13:28:19;6.07;;;3.70;;
34200;SDS011;20469;55.638;37.670;2023-07-13T13:30:48;6.32;;;3.45;;
34200;SDS011;20469;55.638;37.670;2023-07-13T13:33:18;5.45;;;3.28;;
34200;SDS011;20469;55.638;37.670;2023-07-13T13:35:47;5.55;;;3.20;;
34200;SDS011;20469;55.638;37.670;2023-07-13T13:38:15;5.15;;;3.28;;
34200;SDS011;20469;55.638;37.670;2023-07-13T13:40:50;7.20;;;3.40;;
34200;SDS011;20469;55.638;37.670;2023-07-13T13:43:18;6.78;;;3.38;;
34200;SDS011;20469;55.638;37.670;2023-07-13T13:45:54;7.38;;;3.70;;
34200;SDS011;20469;55.638;37.670;2023-07-13T13:48:31;8.07;;;3.08;;
34200;SDS011;20469;55.638;37.670;2023-07-13T13:51:00;8.45;;;3.25;;
34200;SDS011;20469;55.638;37.670;2023-07-13T13:53:32;7.95;;;3.72;;
34200;SDS011;20469;55.638;37.670;2023-07-13T13:55:59;8.52;;;4.03;;
34200;SDS011;20469;55.638;37.670;2023-07-13T13:58:27;9.07;;;4.70;;
34200;SDS011;20469;55.638;37.670;2023-07-13T14:00:54;8.82;;;4.22;;
34200;SDS011;20469;55.638;37.670;2023-07-13T14:03:21;9.55;;;4.43;;
34200;SDS011;20469;55.638;37.670;2023-07-13T14:05:49;11.27;;;5.38;;
34200;SDS011;20469;55.638;37.670;2023-07-13T14:08:17;8.65;;;4.78;;
34200;SDS011;20469;55.638;37.670;2023-07-13T14:10:47;12.57;;;5.13;;
34200;SDS011;20469;55.638;37.670;2023-07-13T14:15:48;6.05;;;4.03;;
34200;SDS011;20469;55.638;37.670;2023-07-13T14:18:15;8.95;;;4.43;;
34200;SDS011;20469;55.638;37.670;2023-07-13T14:20:45;8.55;;;4.60;;
34200;SDS011;20469;55.638;37.670;2023-07-13T14:23:14;10.23;;;4.45;;
34200;SDS011;20469;55.638;37.670;2023-07-13T14:25:42;10.55;;;4.88;;
34200;SDS011;20469;55.638;37.670;2023-07-13T14:30:51;9.52;;;4.75;;
34200;SDS011;20469;55.638;37.670;2023-07-13T14:33:19;12.35;;;4.80;;
34200;SDS011;20469;55.638;37.670;2023-07-13T14:35:47;8.20;;;4.03;;
34200;SDS011;20469;55.638;37.670;2023-07-13T14:38:17;9.52;;;4.30;;
34200;SDS011;20469;55.638;37.670;2023-07-13T14:40:46;9.27;;;4.63;;
34200;SDS011;20469;55.638;37.670;2023-07-13T14:43:14;8.75;;;4.07;;
34200;SDS011;20469;55.638;37.670;2023-07-13T14:45:44;6.60;;;3.65;;
34200;SDS011;20469;55.638;37.670;2023-07-13T14:48:17;8.43;;;3.90;;
34200;SDS011;20469;55.638;37.670;2023-07-13T14:50:49;5.95;;;3.72;;
34200;SDS011;20469;55.638;37.670;2023-07-13T14:53:22;7.50;;;4.05;;
34200;SDS011;20469;55.638;37.670;2023-07-13T14:55:51;6.70;;;3.28;;
34200;SDS011;20469;55.638;37.670;2023-07-13T14:58:19;6.13;;;3.42;;
34200;SDS011;20469;55.638;37.670;2023-07-13T15:00:46;4.82;;;3.17;;
34200;SDS011;20469;55.638;37.670;2023-07-13T15:03:22;7.25;;;3.30;;
34200;SDS011;20469;55.638;37.670;2023-07-13T15:05:51;6.53;;;3.20;;
34200;SDS011;20469;55.638;37.670;2023-07-13T15:08:19;6.07;;;3.50;;
34200;SDS011;20469;55.638;37.670;2023-07-13T15:10:47;5.50;;;3.40;;
34200;SDS011;20469;55.638;37.670;2023-07-13T15:13:18;5.70;;;3.50;;
34200;SDS011;20469;55.638;37.670;2023-07-13T15:15:49;5.78;;;3.15;;
34200;SDS011;20469;55.638;37.670;2023-07-13T15:18:19;6.85;;;3.50;;
34200;SDS011;20469;55.638;37.670;2023-07-13T15:20:49;7.07;;;3.45;;
34200;SDS011;20469;55.638;37.670;2023-07-13T15:23:19;7.18;;;3.90;;
34200;SDS011;20469;55.638;37.670;2023-07-13T15:25:46;6.50;;;3.70;;
34200;SDS011;20469;55.638;37.670;2023-07-13T15:28:13;8.15;;;3.45;;
34200;SDS011;20469;55.638;37.670;2023-07-13T15:30:44;6.90;;;3.45;;
34200;SDS011;20469;55.638;37.670;2023-07-13T15:33:19;6.78;;;3.55;;
34200;SDS011;20469;55.638;37.670;2023-07-13T15:35:52;13.20;;;8.50;;